Mammoth, Pennsylvania
Current Conditions -  °F | °C
As of 1:55 AM on Tuesday 21 Oct 2014 (Local Time) from KLBE Reporting Station
Broken Clouds Broken Clouds  
Wind Chill: 50°   Ceiling: 6000
Heat Index: 50°   Visibility: 10mi
Dew Point: 50°   Wind: 3mph
Humidity: 100%   Direction: 200°SSW
Pressure: 29.87"   Gusts: NA
Location:  40.2°N, 79.46°W
Report Text: KLBE 210555Z AUTO 20003KT 10SM FEW025 BKN060 BKN075 10/10 A2987 RMK A02 P000
Loading
Personal Weather Stations






























Interactive Weather Map
Tropical Storm Tracking
New forecast layout! Learn more

10-Day Weather Forecast

Advertisements
Track Severe Weather on mobile